Newagen, Maine
Current Conditions -  °F | °C
As of 5:53 AM on Thursday 23 Oct 2014 (Local Time) from KIWI Reporting Station
Light Rain Light Rain  
Wind Chill: 44°   Ceiling: 1100
Heat Index: 49°   Visibility: 8mi
Dew Point: 47°   Wind: 12mph
Humidity: 93%   Direction: 30°NNE
Pressure: 29.87"   Gusts: 22mph
Location:  43.79°N, 69.66°W
Report Text: KIWI 230953Z AUTO 03010G19KT 350V070 8SM -RA OVC011 09/08 A2987 RMK AO2 RAE15B32 SLP114 P0002 T00940083
Loading
Personal Weather Stations






























Interactive Weather Map
Tropical Storm Tracking
New forecast layout! Learn more

10-Day Weather Forecast

Advertisements
Track Severe Weather on mobile